sensor_id;sensor_type;location;lat;lon;timestamp;temperature;humidity
46492;DHT22;32206;51.446;6.792;2022-11-20T00:01:49;-0.70;38.70
46492;DHT22;32206;51.446;6.792;2022-11-20T00:04:15;-0.70;42.20
46492;DHT22;32206;51.446;6.792;2022-11-20T00:06:41;-0.70;44.60
46492;DHT22;32206;51.446;6.792;2022-11-20T00:09:06;-0.70;51.10
46492;DHT22;32206;51.446;6.792;2022-11-20T00:11:32;-0.70;53.50
46492;DHT22;32206;51.446;6.792;2022-11-20T00:14:00;-0.60;49.30
46492;DHT22;32206;51.446;6.792;2022-11-20T00:16:27;-0.70;48.90
46492;DHT22;32206;51.446;6.792;2022-11-20T00:18:53;-0.70;54.10
46492;DHT22;32206;51.446;6.792;2022-11-20T00:21:21;-0.80;57.50
46492;DHT22;32206;51.446;6.792;2022-11-20T00:23:48;-0.80;62.20
46492;DHT22;32206;51.446;6.792;2022-11-20T00:26:16;-0.70;63.20
46492;DHT22;32206;51.446;6.792;2022-11-20T00:28:43;-0.80;63.50
46492;DHT22;32206;51.446;6.792;2022-11-20T00:31:14;-0.80;66.00
46492;DHT22;32206;51.446;6.792;2022-11-20T00:33:41;-0.80;65.80
46492;DHT22;32206;51.446;6.792;2022-11-20T00:36:10;-0.80;68.60
46492;DHT22;32206;51.446;6.792;2022-11-20T00:38:36;-0.80;71.00
46492;DHT22;32206;51.446;6.792;2022-11-20T00:41:05;-0.80;72.30
46492;DHT22;32206;51.446;6.792;2022-11-20T00:43:31;-0.80;75.40
46492;DHT22;32206;51.446;6.792;2022-11-20T00:45:58;-0.80;77.60
46492;DHT22;32206;51.446;6.792;2022-11-20T00:48:24;-0.90;81.80
46492;DHT22;32206;51.446;6.792;2022-11-20T00:50:49;-0.90;82.10
46492;DHT22;32206;51.446;6.792;2022-11-20T00:53:15;-0.90;81.70
46492;DHT22;32206;51.446;6.792;2022-11-20T00:55:40;-0.90;85.20
46492;DHT22;32206;51.446;6.792;2022-11-20T00:58:06;-0.90;86.00
46492;DHT22;32206;51.446;6.792;2022-11-20T01:00:32;-0.90;86.00
46492;DHT22;32206;51.446;6.792;2022-11-20T01:02:57;-0.90;84.10
46492;DHT22;32206;51.446;6.792;2022-11-20T01:05:23;-0.90;88.20
46492;DHT22;32206;51.446;6.792;2022-11-20T01:07:48;-1.00;90.20
46492;DHT22;32206;51.446;6.792;2022-11-20T01:10:14;-1.00;91.10
46492;DHT22;32206;51.446;6.792;2022-11-20T01:12:40;-1.00;92.10
46492;DHT22;32206;51.446;6.792;2022-11-20T01:15:05;-0.50;92.90
46492;DHT22;32206;51.446;6.792;2022-11-20T01:17:31;-1.10;93.50
46492;DHT22;32206;51.446;6.792;2022-11-20T01:19:57;-1.00;94.30
46492;DHT22;32206;51.446;6.792;2022-11-20T01:22:23;-1.10;94.70
46492;DHT22;32206;51.446;6.792;2022-11-20T01:24:48;-1.00;95.30
46492;DHT22;32206;51.446;6.792;2022-11-20T01:27:14;-1.10;94.90
46492;DHT22;32206;51.446;6.792;2022-11-20T01:29:39;-1.10;95.70
46492;DHT22;32206;51.446;6.792;2022-11-20T01:32:05;-1.10;96.40
46492;DHT22;32206;51.446;6.792;2022-11-20T01:34:30;-1.10;96.70
46492;DHT22;32206;51.446;6.792;2022-11-20T01:36:56;-1.00;96.70
46492;DHT22;32206;51.446;6.792;2022-11-20T01:39:24;-1.10;96.40
46492;DHT22;32206;51.446;6.792;2022-11-20T01:41:51;-1.00;97.20
46492;DHT22;32206;51.446;6.792;2022-11-20T01:44:56;-1.00;97.20
46492;DHT22;32206;51.446;6.792;2022-11-20T01:47:37;-0.90;96.70
46492;DHT22;32206;51.446;6.792;2022-11-20T01:50:23;-0.90;96.20
46492;DHT22;32206;51.446;6.792;2022-11-20T01:52:53;-0.80;96.10
46492;DHT22;32206;51.446;6.792;2022-11-20T01:55:23;-0.80;95.80
46492;DHT22;32206;51.446;6.792;2022-11-20T01:57:50;-0.80;96.20
46492;DHT22;32206;51.446;6.792;2022-11-20T02:00:18;-0.80;96.00
46492;DHT22;32206;51.446;6.792;2022-11-20T02:02:49;-0.70;96.50
46492;DHT22;32206;51.446;6.792;2022-11-20T02:05:36;-0.80;96.20
46492;DHT22;32206;51.446;6.792;2022-11-20T02:08:04;-0.70;96.00
46492;DHT22;32206;51.446;6.792;2022-11-20T02:10:31;-0.70;95.80
46492;DHT22;32206;51.446;6.792;2022-11-20T02:12:57;-0.60;95.50
46492;DHT22;32206;51.446;6.792;2022-11-20T02:15:42;-0.50;95.50
46492;DHT22;32206;51.446;6.792;2022-11-20T02:18:09;-0.50;95.10
46492;DHT22;32206;51.446;6.792;2022-11-20T02:20:35;-0.50;92.70
46492;DHT22;32206;51.446;6.792;2022-11-20T02:23:23;-0.50;91.20
46492;DHT22;32206;51.446;6.792;2022-11-20T02:25:51;-0.50;90.40
46492;DHT22;32206;51.446;6.792;2022-11-20T02:28:18;-0.50;88.30
46492;DHT22;32206;51.446;6.792;2022-11-20T02:30:44;-0.50;87.70
46492;DHT22;32206;51.446;6.792;2022-11-20T02:33:09;-0.40;88.50
46492;DHT22;32206;51.446;6.792;2022-11-20T02:38:02;-0.40;88.70
46492;DHT22;32206;51.446;6.792;2022-11-20T02:40:28;-0.40;87.70
46492;DHT22;32206;51.446;6.792;2022-11-20T02:42:57;-0.40;89.10
46492;DHT22;32206;51.446;6.792;2022-11-20T02:45:24;-0.40;87.70
46492;DHT22;32206;51.446;6.792;2022-11-20T02:47:49;-0.30;89.40
46492;DHT22;32206;51.446;6.792;2022-11-20T02:50:15;-0.30;87.90
46492;DHT22;32206;51.446;6.792;2022-11-20T02:52:41;-0.30;87.40
46492;DHT22;32206;51.446;6.792;2022-11-20T02:55:07;-0.30;85.70
46492;DHT22;32206;51.446;6.792;2022-11-20T02:57:33;-0.30;85.60
46492;DHT22;32206;51.446;6.792;2022-11-20T02:59:59;-0.20;87.10
46492;DHT22;32206;51.446;6.792;2022-11-20T03:02:24;-0.20;88.90
46492;DHT22;32206;51.446;6.792;2022-11-20T03:04:50;-0.20;88.70
46492;DHT22;32206;51.446;6.792;2022-11-20T03:07:15;-0.20;87.80
46492;DHT22;32206;51.446;6.792;2022-11-20T03:09:41;-0.10;89.40
46492;DHT22;32206;51.446;6.792;2022-11-20T03:12:07;-0.10;88.30
46492;DHT22;32206;51.446;6.792;2022-11-20T03:14:33;-0.10;87.10
46492;DHT22;32206;51.446;6.792;2022-11-20T03:16:59;0.00;88.60
46492;DHT22;32206;51.446;6.792;2022-11-20T03:19:25;0.00;86.90
46492;DHT22;32206;51.446;6.792;2022-11-20T03:21:50;0.10;86.70
46492;DHT22;32206;51.446;6.792;2022-11-20T03:24:16;0.10;87.50
46492;DHT22;32206;51.446;6.792;2022-11-20T03:26:41;0.10;87.20
46492;DHT22;32206;51.446;6.792;2022-11-20T03:29:07;0.10;87.40
46492;DHT22;32206;51.446;6.792;2022-11-20T03:31:35;0.40;89.40
46492;DHT22;32206;51.446;6.792;2022-11-20T03:34:03;0.10;88.00
46492;DHT22;32206;51.446;6.792;2022-11-20T03:36:29;0.20;87.40
46492;DHT22;32206;51.446;6.792;2022-11-20T03:38:56;0.10;84.50
46492;DHT22;32206;51.446;6.792;2022-11-20T03:41:27;0.20;84.80
46492;DHT22;32206;51.446;6.792;2022-11-20T03:43:59;0.20;82.50
46492;DHT22;32206;51.446;6.792;2022-11-20T03:46:27;0.50;82.70
46492;DHT22;32206;51.446;6.792;2022-11-20T03:48:53;0.10;82.60
46492;DHT22;32206;51.446;6.792;2022-11-20T03:53:46;0.20;79.20
46492;DHT22;32206;51.446;6.792;2022-11-20T03:56:15;0.20;81.60
46492;DHT22;32206;51.446;6.792;2022-11-20T03:58:42;0.20;81.70
46492;DHT22;32206;51.446;6.792;2022-11-20T04:01:16;0.30;82.30
46492;DHT22;32206;51.446;6.792;2022-11-20T04:03:43;0.30;84.40
46492;DHT22;32206;51.446;6.792;2022-11-20T04:06:11;0.30;82.90
46492;DHT22;32206;51.446;6.792;2022-11-20T04:08:37;0.30;83.60
46492;DHT22;32206;51.446;6.792;2022-11-20T04:11:14;0.30;77.40
46492;DHT22;32206;51.446;6.792;2022-11-20T04:13:40;0.30;74.40
46492;DHT22;32206;51.446;6.792;2022-11-20T04:16:07;0.30;70.40
46492;DHT22;32206;51.446;6.792;2022-11-20T04:18:33;0.30;65.30
46492;DHT22;32206;51.446;6.792;2022-11-20T04:20:59;0.30;63.70
46492;DHT22;32206;51.446;6.792;2022-11-20T04:23:25;0.30;64.40
46492;DHT22;32206;51.446;6.792;2022-11-20T04:25:50;0.30;61.40
46492;DHT22;32206;51.446;6.792;2022-11-20T04:28:16;0.30;63.70
46492;DHT22;32206;51.446;6.792;2022-11-20T04:30:41;0.30;60.30
46492;DHT22;32206;51.446;6.792;2022-11-20T04:33:07;0.30;62.00
46492;DHT22;32206;51.446;6.792;2022-11-20T04:35:37;0.40;60.40
46492;DHT22;32206;51.446;6.792;2022-11-20T04:38:03;0.40;64.00
46492;DHT22;32206;51.446;6.792;2022-11-20T04:40:29;0.50;63.00
46492;DHT22;32206;51.446;6.792;2022-11-20T04:42:55;0.40;62.80
46492;DHT22;32206;51.446;6.792;2022-11-20T04:45:22;0.50;64.00
46492;DHT22;32206;51.446;6.792;2022-11-20T04:47:48;0.50;67.50
46492;DHT22;32206;51.446;6.792;2022-11-20T04:50:13;0.50;69.20
46492;DHT22;32206;51.446;6.792;2022-11-20T04:52:39;0.60;66.20
46492;DHT22;32206;51.446;6.792;2022-11-20T04:55:05;0.60;63.20
46492;DHT22;32206;51.446;6.792;2022-11-20T04:57:31;0.60;59.80
46492;DHT22;32206;51.446;6.792;2022-11-20T04:59:56;0.60;65.90
46492;DHT22;32206;51.446;6.792;2022-11-20T05:02:22;0.60;63.40
46492;DHT22;32206;51.446;6.792;2022-11-20T05:04:48;0.70;63.70
46492;DHT22;32206;51.446;6.792;2022-11-20T05:07:14;0.70;64.20
46492;DHT22;32206;51.446;6.792;2022-11-20T05:09:40;0.70;55.30
46492;DHT22;32206;51.446;6.792;2022-11-20T05:12:07;0.70;59.30
46492;DHT22;32206;51.446;6.792;2022-11-20T05:14:33;0.60;66.10
46492;DHT22;32206;51.446;6.792;2022-11-20T05:16:59;0.60;65.30
46492;DHT22;32206;51.446;6.792;2022-11-20T05:19:24;0.70;70.70
46492;DHT22;32206;51.446;6.792;2022-11-20T05:21:50;0.60;66.80
46492;DHT22;32206;51.446;6.792;2022-11-20T05:24:15;0.60;71.00
46492;DHT22;32206;51.446;6.792;2022-11-20T05:26:41;0.70;75.70
46492;DHT22;32206;51.446;6.792;2022-11-20T05:29:09;0.70;79.10
46492;DHT22;32206;51.446;6.792;2022-11-20T05:31:34;0.70;76.00
46492;DHT22;32206;51.446;6.792;2022-11-20T05:34:01;0.70;76.10
46492;DHT22;32206;51.446;6.792;2022-11-20T05:36:27;0.70;77.90
46492;DHT22;32206;51.446;6.792;2022-11-20T05:38:52;0.80;78.40
46492;DHT22;32206;51.446;6.792;2022-11-20T05:41:19;0.80;78.70
46492;DHT22;32206;51.446;6.792;2022-11-20T05:43:46;0.90;77.20
46492;DHT22;32206;51.446;6.792;2022-11-20T05:46:14;0.90;76.10
46492;DHT22;32206;51.446;6.792;2022-11-20T05:48:41;1.30;77.20
46492;DHT22;32206;51.446;6.792;2022-11-20T05:51:10;0.90;78.10
46492;DHT22;32206;51.446;6.792;2022-11-20T05:53:36;1.00;79.20
46492;DHT22;32206;51.446;6.792;2022-11-20T05:56:06;1.00;80.90
46492;DHT22;32206;51.446;6.792;2022-11-20T05:58:33;1.00;83.40
46492;DHT22;32206;51.446;6.792;2022-11-20T06:03:30;1.10;89.50
46492;DHT22;32206;51.446;6.792;2022-11-20T06:05:56;1.10;90.70
46492;DHT22;32206;51.446;6.792;2022-11-20T06:08:21;1.10;92.10
46492;DHT22;32206;51.446;6.792;2022-11-20T06:10:47;1.50;93.30
46492;DHT22;32206;51.446;6.792;2022-11-20T06:13:12;1.20;93.50
46492;DHT22;32206;51.446;6.792;2022-11-20T06:15:38;1.20;93.00
46492;DHT22;32206;51.446;6.792;2022-11-20T06:18:03;1.20;93.20
46492;DHT22;32206;51.446;6.792;2022-11-20T06:20:29;1.30;93.00
46492;DHT22;32206;51.446;6.792;2022-11-20T06:22:55;1.20;94.00
46492;DHT22;32206;51.446;6.792;2022-11-20T06:25:20;1.20;93.90
46492;DHT22;32206;51.446;6.792;2022-11-20T06:27:46;1.10;93.80
46492;DHT22;32206;51.446;6.792;2022-11-20T06:30:12;1.10;94.40
46492;DHT22;32206;51.446;6.792;2022-11-20T06:32:37;1.10;95.10
46492;DHT22;32206;51.446;6.792;2022-11-20T06:35:03;1.10;95.20
46492;DHT22;32206;51.446;6.792;2022-11-20T06:37:29;1.10;95.30
46492;DHT22;32206;51.446;6.792;2022-11-20T06:39:54;1.00;95.40
46492;DHT22;32206;51.446;6.792;2022-11-20T06:42:20;1.10;95.20
46492;DHT22;32206;51.446;6.792;2022-11-20T06:44:45;1.10;95.70
46492;DHT22;32206;51.446;6.792;2022-11-20T06:47:11;1.20;95.80
46492;DHT22;32206;51.446;6.792;2022-11-20T06:49:36;1.20;95.40
46492;DHT22;32206;51.446;6.792;2022-11-20T06:52:04;1.60;95.10
46492;DHT22;32206;51.446;6.792;2022-11-20T06:54:29;1.50;94.50
46492;DHT22;32206;51.446;6.792;2022-11-20T06:56:55;1.20;94.50
46492;DHT22;32206;51.446;6.792;2022-11-20T06:59:20;1.20;94.00
46492;DHT22;32206;51.446;6.792;2022-11-20T07:01:46;1.20;94.20
46492;DHT22;32206;51.446;6.792;2022-11-20T07:04:12;1.10;94.10
46492;DHT22;32206;51.446;6.792;2022-11-20T07:06:38;1.20;94.60
46492;DHT22;32206;51.446;6.792;2022-11-20T07:09:03;1.10;95.00
46492;DHT22;32206;51.446;6.792;2022-11-20T07:11:29;1.10;95.40
46492;DHT22;32206;51.446;6.792;2022-11-20T07:13:56;1.20;95.60
46492;DHT22;32206;51.446;6.792;2022-11-20T07:16:22;1.10;95.70
46492;DHT22;32206;51.446;6.792;2022-11-20T07:18:48;1.20;95.70
46492;DHT22;32206;51.446;6.792;2022-11-20T07:21:13;1.20;96.00
46492;DHT22;32206;51.446;6.792;2022-11-20T07:23:39;1.20;96.10
46492;DHT22;32206;51.446;6.792;2022-11-20T07:26:09;1.20;96.10
46492;DHT22;32206;51.446;6.792;2022-11-20T07:28:35;1.30;96.50
46492;DHT22;32206;51.446;6.792;2022-11-20T07:31:01;1.30;96.00
46492;DHT22;32206;51.446;6.792;2022-11-20T07:33:27;1.30;95.80
46492;DHT22;32206;51.446;6.792;2022-11-20T07:35:53;1.30;96.30
46492;DHT22;32206;51.446;6.792;2022-11-20T07:38:18;1.30;95.90
46492;DHT22;32206;51.446;6.792;2022-11-20T07:40:44;1.40;96.50
46492;DHT22;32206;51.446;6.792;2022-11-20T07:43:10;1.40;96.80
46492;DHT22;32206;51.446;6.792;2022-11-20T07:45:35;1.50;96.80
46492;DHT22;32206;51.446;6.792;2022-11-20T07:48:01;1.40;96.80
46492;DHT22;32206;51.446;6.792;2022-11-20T07:50:26;2.20;97.60
46492;DHT22;32206;51.446;6.792;2022-11-20T07:52:52;1.50;98.10
46492;DHT22;32206;51.446;6.792;2022-11-20T07:55:18;1.50;96.90
46492;DHT22;32206;51.446;6.792;2022-11-20T07:57:43;1.40;97.10
46492;DHT22;32206;51.446;6.792;2022-11-20T08:00:10;1.50;97.50
46492;DHT22;32206;51.446;6.792;2022-11-20T08:02:40;1.50;97.60
46492;DHT22;32206;51.446;6.792;2022-11-20T08:05:06;1.50;97.80
46492;DHT22;32206;51.446;6.792;2022-11-20T08:07:39;1.60;97.50
46492;DHT22;32206;51.446;6.792;2022-11-20T08:10:06;1.70;97.80
46492;DHT22;32206;51.446;6.792;2022-11-20T08:12:32;1.70;97.40
46492;DHT22;32206;51.446;6.792;2022-11-20T08:15:17;1.90;97.60
46492;DHT22;32206;51.446;6.792;2022-11-20T08:17:42;1.80;97.40
46492;DHT22;32206;51.446;6.792;2022-11-20T08:20:08;1.80;97.20
46492;DHT22;32206;51.446;6.792;2022-11-20T08:22:34;1.90;97.00
46492;DHT22;32206;51.446;6.792;2022-11-20T08:25:00;1.90;96.60
46492;DHT22;32206;51.446;6.792;2022-11-20T08:27:25;1.90;97.00
46492;DHT22;32206;51.446;6.792;2022-11-20T08:29:51;1.90;96.90
46492;DHT22;32206;51.446;6.792;2022-11-20T08:32:16;1.90;97.20
46492;DHT22;32206;51.446;6.792;2022-11-20T08:34:42;2.00;96.70
46492;DHT22;32206;51.446;6.792;2022-11-20T08:37:07;2.30;97.20
46492;DHT22;32206;51.446;6.792;2022-11-20T08:39:33;2.00;97.10
46492;DHT22;32206;51.446;6.792;2022-11-20T08:41:59;2.00;97.10
46492;DHT22;32206;51.446;6.792;2022-11-20T08:44:24;2.10;97.20
46492;DHT22;32206;51.446;6.792;2022-11-20T08:46:50;2.20;96.80
46492;DHT22;32206;51.446;6.792;2022-11-20T08:49:15;2.30;97.10
46492;DHT22;32206;51.446;6.792;2022-11-20T08:51:41;2.40;97.20
46492;DHT22;32206;51.446;6.792;2022-11-20T08:54:07;2.50;96.50
46492;DHT22;32206;51.446;6.792;2022-11-20T08:56:33;2.60;96.70
46492;DHT22;32206;51.446;6.792;2022-11-20T08:58:59;2.60;94.70
46492;DHT22;32206;51.446;6.792;2022-11-20T09:01:26;2.70;93.70
46492;DHT22;32206;51.446;6.792;2022-11-20T09:03:51;2.70;94.20
46492;DHT22;32206;51.446;6.792;2022-11-20T09:06:18;2.80;94.60
46492;DHT22;32206;51.446;6.792;2022-11-20T09:08:43;2.80;93.40
46492;DHT22;32206;51.446;6.792;2022-11-20T09:11:09;3.10;92.80
46492;DHT22;32206;51.446;6.792;2022-11-20T09:13:35;3.10;90.70
46492;DHT22;32206;51.446;6.792;2022-11-20T09:16:06;3.20;86.90
46492;DHT22;32206;51.446;6.792;2022-11-20T09:18:33;3.20;87.30
46492;DHT22;32206;51.446;6.792;2022-11-20T09:21:02;3.30;88.80
46492;DHT22;32206;51.446;6.792;2022-11-20T09:23:32;3.40;87.70
46492;DHT22;32206;51.446;6.792;2022-11-20T09:26:02;3.60;86.00
46492;DHT22;32206;51.446;6.792;2022-11-20T09:28:27;3.60;76.70
46492;DHT22;32206;51.446;6.792;2022-11-20T09:30:53;3.60;62.70
46492;DHT22;32206;51.446;6.792;2022-11-20T09:33:18;3.80;57.40
46492;DHT22;32206;51.446;6.792;2022-11-20T09:35:44;3.90;46.60
46492;DHT22;32206;51.446;6.792;2022-11-20T09:38:10;3.90;30.70
46492;DHT22;32206;51.446;6.792;2022-11-20T09:40:39;3.90;19.90
46492;DHT22;32206;51.446;6.792;2022-11-20T09:54:17;4.10;1.00
46492;DHT22;32206;51.446;6.792;2022-11-20T09:57:05;4.10;1.00
46492;DHT22;32206;51.446;6.792;2022-11-20T10:02:08;4.20;1.00
46492;DHT22;32206;51.446;6.792;2022-11-20T10:04:47;4.30;1.00
46492;DHT22;32206;51.446;6.792;2022-11-20T10:07:23;4.20;1.00
46492;DHT22;32206;51.446;6.792;2022-11-20T10:09:53;4.10;1.00
46492;DHT22;32206;51.446;6.792;2022-11-20T10:12:35;4.00;1.00
46492;DHT22;32206;51.446;6.792;2022-11-20T10:25:43;3.90;1.00
46492;DHT22;32206;51.446;6.792;2022-11-20T10:28:20;3.90;1.00
46492;DHT22;32206;51.446;6.792;2022-11-20T10:30:56;4.00;1.00
46492;DHT22;32206;51.446;6.792;2022-11-20T10:33:24;4.50;1.00
46492;DHT22;32206;51.446;6.792;2022-11-20T10:36:14;4.20;1.00
46492;DHT22;32206;51.446;6.792;2022-11-20T10:38:50;4.30;1.00
46492;DHT22;32206;51.446;6.792;2022-11-20T10:41:30;4.30;1.00
46492;DHT22;32206;51.446;6.792;2022-11-20T10:44:19;4.40;1.00
46492;DHT22;32206;51.446;6.792;2022-11-20T10:47:05;4.60;1.00
46492;DHT22;32206;51.446;6.792;2022-11-20T10:49:33;4.20;1.00
46492;DHT22;32206;51.446;6.792;2022-11-20T10:52:25;4.30;1.00
46492;DHT22;32206;51.446;6.792;2022-11-20T10:55:10;4.30;1.00
46492;DHT22;32206;51.446;6.792;2022-11-20T11:00:25;4.30;1.00
46492;DHT22;32206;51.446;6.792;2022-11-20T11:02:52;4.40;1.00
46492;DHT22;32206;51.446;6.792;2022-11-20T11:08:34;4.40;1.00
46492;DHT22;32206;51.446;6.792;2022-11-20T11:11:09;4.50;1.00
46492;DHT22;32206;51.446;6.792;2022-11-20T11:13:39;4.60;1.00
46492;DHT22;32206;51.446;6.792;2022-11-20T11:16:04;4.40;1.00
46492;DHT22;32206;51.446;6.792;2022-11-20T11:18:32;4.40;1.00
46492;DHT22;32206;51.446;6.792;2022-11-20T11:21:01;4.40;1.00
46492;DHT22;32206;51.446;6.792;2022-11-20T11:23:37;4.40;5.70
46492;DHT22;32206;51.446;6.792;2022-11-20T11:26:05;4.40;1.00
46492;DHT22;32206;51.446;6.792;2022-11-20T11:28:32;4.30;1.30
46492;DHT22;32206;51.446;6.792;2022-11-20T11:30:57;4.60;6.30
46492;DHT22;32206;51.446;6.792;2022-11-20T11:33:31;4.40;8.80
46492;DHT22;32206;51.446;6.792;2022-11-20T11:36:01;4.40;4.80
46492;DHT22;32206;51.446;6.792;2022-11-20T11:38:38;4.80;3.10
46492;DHT22;32206;51.446;6.792;2022-11-20T11:41:08;4.40;2.80
46492;DHT22;32206;51.446;6.792;2022-11-20T11:43:36;4.90;1.00
46492;DHT22;32206;51.446;6.792;2022-11-20T11:46:29;4.40;8.50
46492;DHT22;32206;51.446;6.792;2022-11-20T11:49:11;4.60;4.80
46492;DHT22;32206;51.446;6.792;2022-11-20T11:54:38;4.80;1.00
46492;DHT22;32206;51.446;6.792;2022-11-20T11:57:20;4.90;1.00
46492;DHT22;32206;51.446;6.792;2022-11-20T11:59:54;4.80;1.00
46492;DHT22;32206;51.446;6.792;2022-11-20T12:02:40;4.80;1.00
46492;DHT22;32206;51.446;6.792;2022-11-20T12:05:21;4.80;1.00
46492;DHT22;32206;51.446;6.792;2022-11-20T12:13:30;4.80;1.00
46492;DHT22;32206;51.446;6.792;2022-11-20T12:16:01;4.90;1.00
46492;DHT22;32206;51.446;6.792;2022-11-20T12:18:28;4.80;1.00
46492;DHT22;32206;51.446;6.792;2022-11-20T12:26:14;4.90;1.90
46492;DHT22;32206;51.446;6.792;2022-11-20T12:29:59;4.90;1.00
46492;DHT22;32206;51.446;6.792;2022-11-20T12:38:43;5.10;1.00
46492;DHT22;32206;51.446;6.792;2022-11-20T12:41:39;5.20;1.00
46492;DHT22;32206;51.446;6.792;2022-11-20T12:53:05;5.20;1.00
46492;DHT22;32206;51.446;6.792;2022-11-20T12:55:46;5.10;1.00
46492;DHT22;32206;51.446;6.792;2022-11-20T12:58:35;5.10;1.00
46492;DHT22;32206;51.446;6.792;2022-11-20T13:01:34;5.10;1.00
46492;DHT22;32206;51.446;6.792;2022-11-20T13:04:28;5.10;1.00
46492;DHT22;32206;51.446;6.792;2022-11-20T13:07:01;5.10;1.00
46492;DHT22;32206;51.446;6.792;2022-11-20T13:09:27;5.10;1.00
46492;DHT22;32206;51.446;6.792;2022-11-20T13:19:57;5.10;1.00
46492;DHT22;32206;51.446;6.792;2022-11-20T13:22:27;5.10;1.00
46492;DHT22;32206;51.446;6.792;2022-11-20T13:24:53;5.20;1.00
46492;DHT22;32206;51.446;6.792;2022-11-20T13:27:21;5.30;1.00
46492;DHT22;32206;51.446;6.792;2022-11-20T13:30:21;5.30;1.00
46492;DHT22;32206;51.446;6.792;2022-11-20T13:32:55;5.20;9.90
46492;DHT22;32206;51.446;6.792;2022-11-20T13:35:33;5.20;19.80
46492;DHT22;32206;51.446;6.792;2022-11-20T13:38:13;5.20;34.10
46492;DHT22;32206;51.446;6.792;2022-11-20T13:43:28;5.20;51.40
46492;DHT22;32206;51.446;6.792;2022-11-20T13:46:05;5.10;69.00
46492;DHT22;32206;51.446;6.792;2022-11-20T13:48:39;5.10;71.00
46492;DHT22;32206;51.446;6.792;2022-11-20T14:02:02;4.90;92.30
46492;DHT22;32206;51.446;6.792;2022-11-20T14:04:33;4.90;94.10
46492;DHT22;32206;51.446;6.792;2022-11-20T14:07:01;4.80;94.40
46492;DHT22;32206;51.446;6.792;2022-11-20T14:11:52;4.80;96.70
46492;DHT22;32206;51.446;6.792;2022-11-20T14:14:20;4.80;99.00
46492;DHT22;32206;51.446;6.792;2022-11-20T14:16:47;4.80;99.90
46492;DHT22;32206;51.446;6.792;2022-11-20T14:21:48;4.80;99.90
46492;DHT22;32206;51.446;6.792;2022-11-20T14:24:19;4.90;99.90
46492;DHT22;32206;51.446;6.792;2022-11-20T14:26:46;4.90;99.90
46492;DHT22;32206;51.446;6.792;2022-11-20T14:29:26;5.00;99.90
46492;DHT22;32206;51.446;6.792;2022-11-20T14:31:53;5.10;99.90
46492;DHT22;32206;51.446;6.792;2022-11-20T14:34:23;5.10;99.90
46492;DHT22;32206;51.446;6.792;2022-11-20T14:36:53;5.10;99.90
46492;DHT22;32206;51.446;6.792;2022-11-20T14:39:22;5.20;99.90
46492;DHT22;32206;51.446;6.792;2022-11-20T14:41:54;5.20;99.90
46492;DHT22;32206;51.446;6.792;2022-11-20T14:44:39;5.20;99.90
46492;DHT22;32206;51.446;6.792;2022-11-20T14:47:06;5.20;99.90
46492;DHT22;32206;51.446;6.792;2022-11-20T14:49:32;5.20;99.90
46492;DHT22;32206;51.446;6.792;2022-11-20T14:52:09;5.20;99.90
46492;DHT22;32206;51.446;6.792;2022-11-20T14:54:46;5.20;99.90
46492;DHT22;32206;51.446;6.792;2022-11-20T14:57:27;5.20;99.90
46492;DHT22;32206;51.446;6.792;2022-11-20T15:02:45;5.20;99.90
46492;DHT22;32206;51.446;6.792;2022-11-20T15:05:11;5.20;99.90
46492;DHT22;32206;51.446;6.792;2022-11-20T15:07:44;5.20;99.90
46492;DHT22;32206;51.446;6.792;2022-11-20T15:12:50;5.20;99.90
46492;DHT22;32206;51.446;6.792;2022-11-20T15:15:30;5.20;99.90
46492;DHT22;32206;51.446;6.792;2022-11-20T15:17:56;5.10;99.90
46492;DHT22;32206;51.446;6.792;2022-11-20T15:20:25;5.10;99.90
46492;DHT22;32206;51.446;6.792;2022-11-20T15:22:51;5.50;99.90
46492;DHT22;32206;51.446;6.792;2022-11-20T15:25:18;5.10;99.90
46492;DHT22;32206;51.446;6.792;2022-11-20T15:27:44;5.20;99.90
46492;DHT22;32206;51.446;6.792;2022-11-20T15:30:18;5.20;99.90
46492;DHT22;32206;51.446;6.792;2022-11-20T15:32:47;5.20;99.90
46492;DHT22;32206;51.446;6.792;2022-11-20T15:35:14;5.20;99.90
46492;DHT22;32206;51.446;6.792;2022-11-20T15:37:41;5.20;99.90
46492;DHT22;32206;51.446;6.792;2022-11-20T15:40:07;5.20;99.90
46492;DHT22;32206;51.446;6.792;2022-11-20T15:42:34;5.20;99.90
46492;DHT22;32206;51.446;6.792;2022-11-20T15:44:59;5.20;99.90
46492;DHT22;32206;51.446;6.792;2022-11-20T15:47:30;5.20;99.90
46492;DHT22;32206;51.446;6.792;2022-11-20T15:49:57;5.20;99.90
46492;DHT22;32206;51.446;6.792;2022-11-20T15:52:22;5.20;99.90
46492;DHT22;32206;51.446;6.792;2022-11-20T15:54:48;5.10;99.90
46492;DHT22;32206;51.446;6.792;2022-11-20T15:57:13;5.10;99.90
46492;DHT22;32206;51.446;6.792;2022-11-20T15:59:39;5.10;99.90
46492;DHT22;32206;51.446;6.792;2022-11-20T16:02:13;5.00;99.90
46492;DHT22;32206;51.446;6.792;2022-11-20T16:04:39;5.00;99.90
46492;DHT22;32206;51.446;6.792;2022-11-20T16:07:04;5.00;99.90
46492;DHT22;32206;51.446;6.792;2022-11-20T16:09:30;5.10;99.90
46492;DHT22;32206;51.446;6.792;2022-11-20T16:11:56;5.00;99.90
46492;DHT22;32206;51.446;6.792;2022-11-20T16:14:24;5.10;99.90
46492;DHT22;32206;51.446;6.792;2022-11-20T16:17:08;5.10;99.90
46492;DHT22;32206;51.446;6.792;2022-11-20T16:19:34;5.20;99.90
46492;DHT22;32206;51.446;6.792;2022-11-20T16:22:00;5.10;99.90
46492;DHT22;32206;51.446;6.792;2022-11-20T16:24:29;5.10;99.90
46492;DHT22;32206;51.446;6.792;2022-11-20T16:26:55;5.10;99.90
46492;DHT22;32206;51.446;6.792;2022-11-20T16:29:21;5.10;99.90
46492;DHT22;32206;51.446;6.792;2022-11-20T16:31:46;5.10;99.90
46492;DHT22;32206;51.446;6.792;2022-11-20T16:34:12;5.20;99.90
46492;DHT22;32206;51.446;6.792;2022-11-20T16:36:41;5.30;99.90
46492;DHT22;32206;51.446;6.792;2022-11-20T16:39:07;5.30;99.90
46492;DHT22;32206;51.446;6.792;2022-11-20T16:41:34;5.30;99.90
46492;DHT22;32206;51.446;6.792;2022-11-20T16:44:08;5.30;99.90
46492;DHT22;32206;51.446;6.792;2022-11-20T16:46:34;5.80;99.90
46492;DHT22;32206;51.446;6.792;2022-11-20T16:49:03;5.50;99.90
46492;DHT22;32206;51.446;6.792;2022-11-20T16:51:30;5.30;99.90
46492;DHT22;32206;51.446;6.792;2022-11-20T16:54:04;5.30;99.90
46492;DHT22;32206;51.446;6.792;2022-11-20T16:56:30;5.30;99.90
46492;DHT22;32206;51.446;6.792;2022-11-20T16:58:57;5.40;99.90
46492;DHT22;32206;51.446;6.792;2022-11-20T17:01:25;5.30;99.90
46492;DHT22;32206;51.446;6.792;2022-11-20T17:04:02;5.30;99.90
46492;DHT22;32206;51.446;6.792;2022-11-20T17:06:36;5.40;99.90
46492;DHT22;32206;51.446;6.792;2022-11-20T17:09:02;5.50;99.90
46492;DHT22;32206;51.446;6.792;2022-11-20T17:11:28;5.40;99.90
46492;DHT22;32206;51.446;6.792;2022-11-20T17:13:55;5.40;99.90
46492;DHT22;32206;51.446;6.792;2022-11-20T17:16:23;5.40;99.90
46492;DHT22;32206;51.446;6.792;2022-11-20T17:18:49;5.40;99.90
46492;DHT22;32206;51.446;6.792;2022-11-20T17:21:14;5.50;99.90
46492;DHT22;32206;51.446;6.792;2022-11-20T17:23:42;5.50;99.90
46492;DHT22;32206;51.446;6.792;2022-11-20T17:26:08;5.50;99.90
46492;DHT22;32206;51.446;6.792;2022-11-20T17:28:35;5.50;99.90
46492;DHT22;32206;51.446;6.792;2022-11-20T17:31:02;5.60;99.90
46492;DHT22;32206;51.446;6.792;2022-11-20T17:33:28;6.00;99.90
46492;DHT22;32206;51.446;6.792;2022-11-20T17:35:54;5.60;99.90